sensor_id;sensor_type;location;lat;lon;timestamp;pressure;altitude;pressure_sealevel;temperature
71081;BMP180;58740;50.672;18.690;2023-08-17T00:02:13;99248.00;;;25.40
71081;BMP180;58740;50.672;18.690;2023-08-17T00:04:41;99251.00;;;25.40
71081;BMP180;58740;50.672;18.690;2023-08-17T00:07:09;99251.60;;;25.30
71081;BMP180;58740;50.672;18.690;2023-08-17T00:09:37;99249.40;;;25.30
71081;BMP180;58740;50.672;18.690;2023-08-17T00:12:05;99248.80;;;25.30
71081;BMP180;58740;50.672;18.690;2023-08-17T00:14:33;99254.40;;;25.30
71081;BMP180;58740;50.672;18.690;2023-08-17T00:17:01;99256.20;;;25.30
71081;BMP180;58740;50.672;18.690;2023-08-17T00:19:30;99257.60;;;25.30
71081;BMP180;58740;50.672;18.690;2023-08-17T00:21:58;99253.60;;;25.24
71081;BMP180;58740;50.672;18.690;2023-08-17T00:24:26;99254.00;;;25.20
71081;BMP180;58740;50.672;18.690;2023-08-17T00:26:53;99253.00;;;25.20
71081;BMP180;58740;50.672;18.690;2023-08-17T00:29:21;99253.60;;;25.18
71081;BMP180;58740;50.672;18.690;2023-08-17T00:31:49;99252.60;;;25.10
71081;BMP180;58740;50.672;18.690;2023-08-17T00:34:18;99254.20;;;25.00
71081;BMP180;58740;50.672;18.690;2023-08-17T00:36:46;99263.80;;;24.98
71081;BMP180;58740;50.672;18.690;2023-08-17T00:39:14;99267.00;;;24.98
71081;BMP180;58740;50.672;18.690;2023-08-17T00:41:42;99264.80;;;24.90
71081;BMP180;58740;50.672;18.690;2023-08-17T00:44:10;99261.60;;;24.90
71081;BMP180;58740;50.672;18.690;2023-08-17T00:46:38;99260.80;;;24.90
71081;BMP180;58740;50.672;18.690;2023-08-17T00:49:10;99265.00;;;24.82
71081;BMP180;58740;50.672;18.690;2023-08-17T00:51:39;99268.00;;;24.80
71081;BMP180;58740;50.672;18.690;2023-08-17T00:54:07;99273.80;;;24.80
71081;BMP180;58740;50.672;18.690;2023-08-17T00:56:36;99273.40;;;24.72
71081;BMP180;58740;50.672;18.690;2023-08-17T00:59:04;99275.80;;;24.70
71081;BMP180;58740;50.672;18.690;2023-08-17T01:01:32;99272.80;;;24.70
71081;BMP180;58740;50.672;18.690;2023-08-17T01:04:00;99268.40;;;24.70
71081;BMP180;58740;50.672;18.690;2023-08-17T01:06:28;99270.80;;;24.60
71081;BMP180;58740;50.672;18.690;2023-08-17T01:08:56;99273.20;;;24.60
71081;BMP180;58740;50.672;18.690;2023-08-17T01:11:38;99282.60;;;24.60
71081;BMP180;58740;50.672;18.690;2023-08-17T01:17:22;99274.00;;;24.60
71081;BMP180;58740;50.672;18.690;2023-08-17T01:19:53;99272.60;;;24.50
71081;BMP180;58740;50.672;18.690;2023-08-17T01:22:22;99278.80;;;24.50
71081;BMP180;58740;50.672;18.690;2023-08-17T01:24:55;99286.20;;;24.50
71081;BMP180;58740;50.672;18.690;2023-08-17T01:27:24;99288.20;;;24.40
71081;BMP180;58740;50.672;18.690;2023-08-17T01:29:53;99284.80;;;24.40
71081;BMP180;58740;50.672;18.690;2023-08-17T01:35:37;99293.00;;;24.30
71081;BMP180;58740;50.672;18.690;2023-08-17T01:38:12;99298.00;;;24.30
71081;BMP180;58740;50.672;18.690;2023-08-17T01:40:42;99319.60;;;24.20
71081;BMP180;58740;50.672;18.690;2023-08-17T01:43:12;99328.00;;;24.20
71081;BMP180;58740;50.672;18.690;2023-08-17T01:45:40;99334.60;;;24.14
71081;BMP180;58740;50.672;18.690;2023-08-17T01:48:10;99340.80;;;24.10
71081;BMP180;58740;50.672;18.690;2023-08-17T01:50:38;99332.40;;;24.10
71081;BMP180;58740;50.672;18.690;2023-08-17T01:53:06;99338.40;;;24.00
71081;BMP180;58740;50.672;18.690;2023-08-17T01:55:34;99335.40;;;24.00
71081;BMP180;58740;50.672;18.690;2023-08-17T01:58:03;99335.40;;;24.00
71081;BMP180;58740;50.672;18.690;2023-08-17T02:00:31;99333.20;;;23.92
71081;BMP180;58740;50.672;18.690;2023-08-17T02:02:58;99328.60;;;23.90
71081;BMP180;58740;50.672;18.690;2023-08-17T02:05:26;99321.20;;;23.90
71081;BMP180;58740;50.672;18.690;2023-08-17T02:07:56;99317.20;;;23.90
71081;BMP180;58740;50.672;18.690;2023-08-17T02:10:24;99323.00;;;23.90
71081;BMP180;58740;50.672;18.690;2023-08-17T02:12:52;99320.60;;;23.90
71081;BMP180;58740;50.672;18.690;2023-08-17T02:15:28;99320.00;;;23.80
71081;BMP180;58740;50.672;18.690;2023-08-17T02:18:00;99321.80;;;23.80
71081;BMP180;58740;50.672;18.690;2023-08-17T02:20:28;99321.80;;;23.80
71081;BMP180;58740;50.672;18.690;2023-08-17T02:22:56;99326.80;;;23.80
71081;BMP180;58740;50.672;18.690;2023-08-17T02:25:24;99330.40;;;23.70
71081;BMP180;58740;50.672;18.690;2023-08-17T02:27:52;99333.40;;;23.70
71081;BMP180;58740;50.672;18.690;2023-08-17T02:30:20;99334.00;;;23.70
71081;BMP180;58740;50.672;18.690;2023-08-17T02:32:48;99331.80;;;23.60
71081;BMP180;58740;50.672;18.690;2023-08-17T02:35:16;99337.80;;;23.60
71081;BMP180;58740;50.672;18.690;2023-08-17T02:37:44;99348.60;;;23.54
71081;BMP180;58740;50.672;18.690;2023-08-17T02:40:11;99355.80;;;23.50
71081;BMP180;58740;50.672;18.690;2023-08-17T02:42:39;99359.20;;;23.40
71081;BMP180;58740;50.672;18.690;2023-08-17T02:45:08;99354.40;;;23.40
71081;BMP180;58740;50.672;18.690;2023-08-17T02:47:36;99359.40;;;23.40
71081;BMP180;58740;50.672;18.690;2023-08-17T02:50:05;99357.60;;;23.40
71081;BMP180;58740;50.672;18.690;2023-08-17T02:52:33;99364.20;;;23.36
71081;BMP180;58740;50.672;18.690;2023-08-17T02:55:01;99378.80;;;23.30
71081;BMP180;58740;50.672;18.690;2023-08-17T02:57:29;99371.40;;;23.30
71081;BMP180;58740;50.672;18.690;2023-08-17T02:59:56;99366.20;;;23.32
71081;BMP180;58740;50.672;18.690;2023-08-17T03:02:24;99365.20;;;23.30
71081;BMP180;58740;50.672;18.690;2023-08-17T03:04:52;99361.40;;;23.30
71081;BMP180;58740;50.672;18.690;2023-08-17T03:07:20;99362.20;;;23.30
71081;BMP180;58740;50.672;18.690;2023-08-17T03:09:48;99364.00;;;23.30
71081;BMP180;58740;50.672;18.690;2023-08-17T03:12:16;99363.00;;;23.30
71081;BMP180;58740;50.672;18.690;2023-08-17T03:14:44;99368.40;;;23.20
71081;BMP180;58740;50.672;18.690;2023-08-17T03:17:12;99370.60;;;23.20
71081;BMP180;58740;50.672;18.690;2023-08-17T03:19:40;99373.00;;;23.20
71081;BMP180;58740;50.672;18.690;2023-08-17T03:22:08;99373.40;;;23.20
71081;BMP180;58740;50.672;18.690;2023-08-17T03:24:36;99378.60;;;23.10
71081;BMP180;58740;50.672;18.690;2023-08-17T03:27:03;99376.00;;;23.10
71081;BMP180;58740;50.672;18.690;2023-08-17T03:29:32;99373.40;;;23.10
71081;BMP180;58740;50.672;18.690;2023-08-17T03:31:59;99369.80;;;23.10
71081;BMP180;58740;50.672;18.690;2023-08-17T03:34:27;99365.20;;;23.10
71081;BMP180;58740;50.672;18.690;2023-08-17T03:36:55;99370.40;;;23.10
71081;BMP180;58740;50.672;18.690;2023-08-17T03:39:23;99369.60;;;23.08
71081;BMP180;58740;50.672;18.690;2023-08-17T03:41:50;99371.40;;;23.06
71081;BMP180;58740;50.672;18.690;2023-08-17T03:44:19;99369.60;;;23.00
71081;BMP180;58740;50.672;18.690;2023-08-17T03:46:46;99369.80;;;23.00
71081;BMP180;58740;50.672;18.690;2023-08-17T03:49:14;99372.00;;;23.00
71081;BMP180;58740;50.672;18.690;2023-08-17T03:51:42;99376.20;;;23.00
71081;BMP180;58740;50.672;18.690;2023-08-17T03:54:12;99380.80;;;23.00
71081;BMP180;58740;50.672;18.690;2023-08-17T03:56:39;99376.80;;;23.00
71081;BMP180;58740;50.672;18.690;2023-08-17T03:59:07;99373.00;;;23.00
71081;BMP180;58740;50.672;18.690;2023-08-17T04:01:35;99371.80;;;23.00
71081;BMP180;58740;50.672;18.690;2023-08-17T04:04:03;99366.80;;;23.00
71081;BMP180;58740;50.672;18.690;2023-08-17T04:06:31;99368.80;;;23.00
71081;BMP180;58740;50.672;18.690;2023-08-17T04:08:59;99369.60;;;22.92
71081;BMP180;58740;50.672;18.690;2023-08-17T04:11:28;99362.40;;;22.90
71081;BMP180;58740;50.672;18.690;2023-08-17T04:13:56;99364.40;;;22.90
71081;BMP180;58740;50.672;18.690;2023-08-17T04:16:24;99359.20;;;22.90
71081;BMP180;58740;50.672;18.690;2023-08-17T04:18:52;99356.40;;;22.86
71081;BMP180;58740;50.672;18.690;2023-08-17T04:21:19;99356.20;;;22.80
71081;BMP180;58740;50.672;18.690;2023-08-17T04:23:48;99362.40;;;22.80
71081;BMP180;58740;50.672;18.690;2023-08-17T04:26:15;99362.00;;;22.80
71081;BMP180;58740;50.672;18.690;2023-08-17T04:28:43;99363.40;;;22.80
71081;BMP180;58740;50.672;18.690;2023-08-17T04:31:11;99364.20;;;22.80
71081;BMP180;58740;50.672;18.690;2023-08-17T04:33:40;99370.60;;;22.76
71081;BMP180;58740;50.672;18.690;2023-08-17T04:36:08;99374.00;;;22.78
71081;BMP180;58740;50.672;18.690;2023-08-17T04:38:36;99371.60;;;22.74
71081;BMP180;58740;50.672;18.690;2023-08-17T04:41:03;99365.40;;;22.80
71081;BMP180;58740;50.672;18.690;2023-08-17T04:43:31;99365.60;;;22.78
71081;BMP180;58740;50.672;18.690;2023-08-17T04:45:59;99364.60;;;22.70
71081;BMP180;58740;50.672;18.690;2023-08-17T04:48:27;99359.60;;;22.70
71081;BMP180;58740;50.672;18.690;2023-08-17T04:50:55;99363.60;;;22.70
71081;BMP180;58740;50.672;18.690;2023-08-17T04:53:22;99362.00;;;22.70
71081;BMP180;58740;50.672;18.690;2023-08-17T04:55:50;99372.00;;;22.70
71081;BMP180;58740;50.672;18.690;2023-08-17T04:58:18;99373.20;;;22.68
71081;BMP180;58740;50.672;18.690;2023-08-17T05:00:46;99376.00;;;22.70
71081;BMP180;58740;50.672;18.690;2023-08-17T05:03:15;99378.00;;;22.70
71081;BMP180;58740;50.672;18.690;2023-08-17T05:05:59;99381.40;;;22.70
71081;BMP180;58740;50.672;18.690;2023-08-17T05:08:27;99380.80;;;22.70
71081;BMP180;58740;50.672;18.690;2023-08-17T05:10:55;99380.20;;;22.70
71081;BMP180;58740;50.672;18.690;2023-08-17T05:13:23;99384.00;;;22.70
71081;BMP180;58740;50.672;18.690;2023-08-17T05:15:51;99381.40;;;22.70
71081;BMP180;58740;50.672;18.690;2023-08-17T05:18:19;99390.80;;;22.70
71081;BMP180;58740;50.672;18.690;2023-08-17T05:20:59;99389.40;;;22.80
71081;BMP180;58740;50.672;18.690;2023-08-17T05:23:32;99383.40;;;22.80
71081;BMP180;58740;50.672;18.690;2023-08-17T05:26:04;99383.60;;;22.80
71081;BMP180;58740;50.672;18.690;2023-08-17T05:28:38;99383.40;;;22.80
71081;BMP180;58740;50.672;18.690;2023-08-17T05:31:09;99390.80;;;22.80
71081;BMP180;58740;50.672;18.690;2023-08-17T05:33:37;99390.80;;;22.90
71081;BMP180;58740;50.672;18.690;2023-08-17T05:36:05;99398.40;;;22.90
71081;BMP180;58740;50.672;18.690;2023-08-17T05:38:32;99400.40;;;22.90
71081;BMP180;58740;50.672;18.690;2023-08-17T05:41:00;99398.80;;;22.90
71081;BMP180;58740;50.672;18.690;2023-08-17T05:43:29;99397.80;;;22.90
71081;BMP180;58740;50.672;18.690;2023-08-17T05:45:58;99395.60;;;22.90
71081;BMP180;58740;50.672;18.690;2023-08-17T05:48:29;99402.40;;;22.92
71081;BMP180;58740;50.672;18.690;2023-08-17T05:50:57;99399.60;;;22.94
71081;BMP180;58740;50.672;18.690;2023-08-17T05:53:24;99395.80;;;23.00
71081;BMP180;58740;50.672;18.690;2023-08-17T05:55:52;99392.20;;;23.00
71081;BMP180;58740;50.672;18.690;2023-08-17T05:58:20;99394.40;;;23.00
71081;BMP180;58740;50.672;18.690;2023-08-17T06:00:48;99399.60;;;23.00
71081;BMP180;58740;50.672;18.690;2023-08-17T06:03:16;99406.60;;;23.10
71081;BMP180;58740;50.672;18.690;2023-08-17T06:05:44;99399.80;;;23.10
71081;BMP180;58740;50.672;18.690;2023-08-17T06:08:11;99403.20;;;23.18
71081;BMP180;58740;50.672;18.690;2023-08-17T06:10:39;99403.40;;;23.10
71081;BMP180;58740;50.672;18.690;2023-08-17T06:13:07;99399.80;;;23.10
71081;BMP180;58740;50.672;18.690;2023-08-17T06:15:35;99400.80;;;23.10
71081;BMP180;58740;50.672;18.690;2023-08-17T06:18:03;99403.20;;;23.10
71081;BMP180;58740;50.672;18.690;2023-08-17T06:20:31;99410.00;;;23.20
71081;BMP180;58740;50.672;18.690;2023-08-17T06:22:59;99409.00;;;23.20
71081;BMP180;58740;50.672;18.690;2023-08-17T06:25:27;99406.80;;;23.28
71081;BMP180;58740;50.672;18.690;2023-08-17T06:27:55;99405.00;;;23.22
71081;BMP180;58740;50.672;18.690;2023-08-17T06:30:24;99409.00;;;23.30
71081;BMP180;58740;50.672;18.690;2023-08-17T06:32:52;99412.80;;;23.48
71081;BMP180;58740;50.672;18.690;2023-08-17T06:35:20;99417.00;;;23.60
71081;BMP180;58740;50.672;18.690;2023-08-17T06:37:48;99416.20;;;23.60
71081;BMP180;58740;50.672;18.690;2023-08-17T06:40:16;99419.80;;;23.62
71081;BMP180;58740;50.672;18.690;2023-08-17T06:42:44;99425.40;;;23.66
71081;BMP180;58740;50.672;18.690;2023-08-17T06:45:12;99432.40;;;23.70
71081;BMP180;58740;50.672;18.690;2023-08-17T06:47:40;99431.40;;;23.70
71081;BMP180;58740;50.672;18.690;2023-08-17T06:50:08;99419.20;;;23.70
71081;BMP180;58740;50.672;18.690;2023-08-17T06:52:39;99419.40;;;23.80
71081;BMP180;58740;50.672;18.690;2023-08-17T06:55:08;99409.00;;;23.80
71081;BMP180;58740;50.672;18.690;2023-08-17T06:57:37;99409.60;;;23.80
71081;BMP180;58740;50.672;18.690;2023-08-17T07:00:06;99404.40;;;23.80
71081;BMP180;58740;50.672;18.690;2023-08-17T07:02:34;99411.00;;;23.90
71081;BMP180;58740;50.672;18.690;2023-08-17T07:05:17;99415.00;;;23.90
71081;BMP180;58740;50.672;18.690;2023-08-17T07:07:46;99413.60;;;23.90
71081;BMP180;58740;50.672;18.690;2023-08-17T07:10:13;99419.40;;;24.00
71081;BMP180;58740;50.672;18.690;2023-08-17T07:12:41;99420.00;;;24.00
71081;BMP180;58740;50.672;18.690;2023-08-17T07:15:10;99419.00;;;24.18
71081;BMP180;58740;50.672;18.690;2023-08-17T07:17:38;99418.00;;;24.32
71081;BMP180;58740;50.672;18.690;2023-08-17T07:20:06;99418.60;;;24.50
71081;BMP180;58740;50.672;18.690;2023-08-17T07:22:41;99420.40;;;24.60
71081;BMP180;58740;50.672;18.690;2023-08-17T07:25:09;99418.40;;;24.70
71081;BMP180;58740;50.672;18.690;2023-08-17T07:27:37;99419.40;;;24.70
71081;BMP180;58740;50.672;18.690;2023-08-17T07:30:06;99421.00;;;24.70
71081;BMP180;58740;50.672;18.690;2023-08-17T07:32:34;99422.00;;;24.80
71081;BMP180;58740;50.672;18.690;2023-08-17T07:35:03;99420.80;;;24.92
71081;BMP180;58740;50.672;18.690;2023-08-17T07:37:31;99426.40;;;25.10
71081;BMP180;58740;50.672;18.690;2023-08-17T07:40:01;99428.80;;;25.26
71081;BMP180;58740;50.672;18.690;2023-08-17T07:42:32;99429.60;;;25.38
71081;BMP180;58740;50.672;18.690;2023-08-17T07:45:02;99425.00;;;25.50
71081;BMP180;58740;50.672;18.690;2023-08-17T07:47:34;99425.40;;;25.58
71081;BMP180;58740;50.672;18.690;2023-08-17T07:50:18;99425.40;;;25.70
71081;BMP180;58740;50.672;18.690;2023-08-17T07:52:46;99420.40;;;25.70
71081;BMP180;58740;50.672;18.690;2023-08-17T07:55:13;99429.20;;;25.80
71081;BMP180;58740;50.672;18.690;2023-08-17T07:57:41;99429.40;;;25.80
71081;BMP180;58740;50.672;18.690;2023-08-17T08:00:10;99420.80;;;25.80
71081;BMP180;58740;50.672;18.690;2023-08-17T08:02:38;99425.40;;;25.80
71081;BMP180;58740;50.672;18.690;2023-08-17T08:05:06;99420.20;;;25.80
71081;BMP180;58740;50.672;18.690;2023-08-17T08:07:34;99421.40;;;25.80
71081;BMP180;58740;50.672;18.690;2023-08-17T08:10:02;99420.40;;;25.90
71081;BMP180;58740;50.672;18.690;2023-08-17T08:12:30;99421.80;;;25.90
71081;BMP180;58740;50.672;18.690;2023-08-17T08:14:58;99419.20;;;25.96
71081;BMP180;58740;50.672;18.690;2023-08-17T08:17:26;99415.80;;;26.00
71081;BMP180;58740;50.672;18.690;2023-08-17T08:19:55;99415.20;;;26.00
71081;BMP180;58740;50.672;18.690;2023-08-17T08:22:23;99413.20;;;26.00
71081;BMP180;58740;50.672;18.690;2023-08-17T08:24:51;99412.20;;;26.00
71081;BMP180;58740;50.672;18.690;2023-08-17T08:27:18;99414.00;;;26.10
71081;BMP180;58740;50.672;18.690;2023-08-17T08:29:46;99411.60;;;26.18
71081;BMP180;58740;50.672;18.690;2023-08-17T08:32:14;99406.20;;;26.30
71081;BMP180;58740;50.672;18.690;2023-08-17T08:34:42;99404.60;;;26.30
71081;BMP180;58740;50.672;18.690;2023-08-17T08:37:10;99402.00;;;26.30
71081;BMP180;58740;50.672;18.690;2023-08-17T08:39:54;99406.20;;;26.30
71081;BMP180;58740;50.672;18.690;2023-08-17T08:42:24;99408.20;;;26.38
71081;BMP180;58740;50.672;18.690;2023-08-17T08:44:53;99414.00;;;26.50
71081;BMP180;58740;50.672;18.690;2023-08-17T08:47:22;99412.40;;;26.62
71081;BMP180;58740;50.672;18.690;2023-08-17T08:50:04;99414.40;;;26.76
71081;BMP180;58740;50.672;18.690;2023-08-17T08:52:36;99413.00;;;26.90
71081;BMP180;58740;50.672;18.690;2023-08-17T08:55:37;99419.20;;;27.00
71081;BMP180;58740;50.672;18.690;2023-08-17T08:58:15;99407.80;;;27.12
71081;BMP180;58740;50.672;18.690;2023-08-17T09:00:47;99408.00;;;27.20
71081;BMP180;58740;50.672;18.690;2023-08-17T09:03:16;99406.60;;;27.20
71081;BMP180;58740;50.672;18.690;2023-08-17T09:05:50;99406.40;;;27.26
71081;BMP180;58740;50.672;18.690;2023-08-17T09:08:27;99401.00;;;27.24
71081;BMP180;58740;50.672;18.690;2023-08-17T09:10:57;99400.60;;;27.20
71081;BMP180;58740;50.672;18.690;2023-08-17T09:13:25;99403.20;;;27.20
71081;BMP180;58740;50.672;18.690;2023-08-17T09:15:52;99407.40;;;27.20
71081;BMP180;58740;50.672;18.690;2023-08-17T09:18:20;99408.80;;;27.16
71081;BMP180;58740;50.672;18.690;2023-08-17T09:20:51;99405.20;;;27.12
71081;BMP180;58740;50.672;18.690;2023-08-17T09:23:21;99399.00;;;27.10
71081;BMP180;58740;50.672;18.690;2023-08-17T09:25:50;99400.00;;;27.10
71081;BMP180;58740;50.672;18.690;2023-08-17T09:28:26;99394.80;;;27.10
71081;BMP180;58740;50.672;18.690;2023-08-17T09:30:59;99394.40;;;27.10
71081;BMP180;58740;50.672;18.690;2023-08-17T09:33:30;99391.40;;;27.10
71081;BMP180;58740;50.672;18.690;2023-08-17T09:35:59;99392.20;;;27.10
71081;BMP180;58740;50.672;18.690;2023-08-17T09:38:28;99392.00;;;27.06
71081;BMP180;58740;50.672;18.690;2023-08-17T09:40:58;99394.40;;;27.10
71081;BMP180;58740;50.672;18.690;2023-08-17T09:43:26;99387.40;;;27.10
71081;BMP180;58740;50.672;18.690;2023-08-17T09:46:01;99383.20;;;27.18
71081;BMP180;58740;50.672;18.690;2023-08-17T09:48:30;99379.80;;;27.20
71081;BMP180;58740;50.672;18.690;2023-08-17T09:51:00;99373.00;;;27.30
71081;BMP180;58740;50.672;18.690;2023-08-17T09:53:35;99370.20;;;27.34
71081;BMP180;58740;50.672;18.690;2023-08-17T09:56:06;99367.20;;;27.40
71081;BMP180;58740;50.672;18.690;2023-08-17T09:58:44;99370.80;;;27.40
71081;BMP180;58740;50.672;18.690;2023-08-17T10:01:13;99370.00;;;27.32
71081;BMP180;58740;50.672;18.690;2023-08-17T10:03:45;99363.40;;;27.30
71081;BMP180;58740;50.672;18.690;2023-08-17T10:06:20;99363.20;;;27.22
71081;BMP180;58740;50.672;18.690;2023-08-17T10:08:56;99360.00;;;27.20
71081;BMP180;58740;50.672;18.690;2023-08-17T10:11:30;99359.80;;;27.20
71081;BMP180;58740;50.672;18.690;2023-08-17T10:14:15;99360.80;;;27.30
71081;BMP180;58740;50.672;18.690;2023-08-17T10:16:46;99357.60;;;27.30
71081;BMP180;58740;50.672;18.690;2023-08-17T10:19:55;99351.80;;;27.40
71081;BMP180;58740;50.672;18.690;2023-08-17T10:25:39;99344.00;;;27.50
71081;BMP180;58740;50.672;18.690;2023-08-17T10:28:10;99342.00;;;27.50
71081;BMP180;58740;50.672;18.690;2023-08-17T10:30:39;99341.00;;;27.60
71081;BMP180;58740;50.672;18.690;2023-08-17T10:33:07;99341.40;;;27.60
71081;BMP180;58740;50.672;18.690;2023-08-17T10:35:39;99342.60;;;27.60
71081;BMP180;58740;50.672;18.690;2023-08-17T10:38:08;99346.80;;;27.70
71081;BMP180;58740;50.672;18.690;2023-08-17T10:40:42;99340.80;;;27.70
71081;BMP180;58740;50.672;18.690;2023-08-17T10:43:11;99337.60;;;27.70
71081;BMP180;58740;50.672;18.690;2023-08-17T10:45:39;99336.00;;;27.72
71081;BMP180;58740;50.672;18.690;2023-08-17T10:50:39;99333.80;;;27.80
71081;BMP180;58740;50.672;18.690;2023-08-17T10:53:14;99338.20;;;27.80
71081;BMP180;58740;50.672;18.690;2023-08-17T10:55:46;99338.40;;;27.90
71081;BMP180;58740;50.672;18.690;2023-08-17T10:58:19;99343.00;;;27.90
71081;BMP180;58740;50.672;18.690;2023-08-17T11:00:54;99345.60;;;27.90
71081;BMP180;58740;50.672;18.690;2023-08-17T11:03:24;99350.20;;;27.92
71081;BMP180;58740;50.672;18.690;2023-08-17T11:05:56;99349.60;;;28.00
71081;BMP180;58740;50.672;18.690;2023-08-17T11:08:39;99349.80;;;28.00
71081;BMP180;58740;50.672;18.690;2023-08-17T11:11:15;99351.00;;;28.06
71081;BMP180;58740;50.672;18.690;2023-08-17T11:13:45;99351.20;;;28.10
71081;BMP180;58740;50.672;18.690;2023-08-17T11:16:15;99353.40;;;28.10
71081;BMP180;58740;50.672;18.690;2023-08-17T11:18:47;99351.80;;;28.20
71081;BMP180;58740;50.672;18.690;2023-08-17T11:21:17;99348.00;;;28.20
71081;BMP180;58740;50.672;18.690;2023-08-17T11:23:47;99349.20;;;28.20
71081;BMP180;58740;50.672;18.690;2023-08-17T11:26:17;99352.20;;;28.22
71081;BMP180;58740;50.672;18.690;2023-08-17T11:28:46;99347.00;;;28.24
71081;BMP180;58740;50.672;18.690;2023-08-17T11:31:14;99340.80;;;28.28
71081;BMP180;58740;50.672;18.690;2023-08-17T11:33:44;99331.00;;;28.30
71081;BMP180;58740;50.672;18.690;2023-08-17T11:36:14;99326.40;;;28.30
71081;BMP180;58740;50.672;18.690;2023-08-17T11:38:43;99324.60;;;28.36
71081;BMP180;58740;50.672;18.690;2023-08-17T11:41:12;99317.20;;;28.40
71081;BMP180;58740;50.672;18.690;2023-08-17T11:43:45;99320.20;;;28.40
71081;BMP180;58740;50.672;18.690;2023-08-17T11:46:13;99323.20;;;28.46
71081;BMP180;58740;50.672;18.690;2023-08-17T11:48:43;99326.60;;;28.50
71081;BMP180;58740;50.672;18.690;2023-08-17T11:51:11;99331.80;;;28.50
71081;BMP180;58740;50.672;18.690;2023-08-17T11:53:39;99333.60;;;28.54
71081;BMP180;58740;50.672;18.690;2023-08-17T11:56:08;99332.80;;;28.60
71081;BMP180;58740;50.672;18.690;2023-08-17T11:58:46;99331.00;;;28.60
71081;BMP180;58740;50.672;18.690;2023-08-17T12:01:15;99322.60;;;28.56
71081;BMP180;58740;50.672;18.690;2023-08-17T12:03:48;99311.00;;;28.50
71081;BMP180;58740;50.672;18.690;2023-08-17T12:06:17;99298.60;;;28.50
71081;BMP180;58740;50.672;18.690;2023-08-17T12:08:47;99281.80;;;28.46
71081;BMP180;58740;50.672;18.690;2023-08-17T12:11:17;99274.60;;;28.50
71081;BMP180;58740;50.672;18.690;2023-08-17T12:13:50;99265.40;;;28.50
71081;BMP180;58740;50.672;18.690;2023-08-17T12:16:20;99265.00;;;28.60
71081;BMP180;58740;50.672;18.690;2023-08-17T12:18:50;99272.40;;;28.60
71081;BMP180;58740;50.672;18.690;2023-08-17T12:21:25;99273.40;;;28.60
71081;BMP180;58740;50.672;18.690;2023-08-17T12:24:04;99284.60;;;28.60
71081;BMP180;58740;50.672;18.690;2023-08-17T12:26:32;99281.60;;;28.60
71081;BMP180;58740;50.672;18.690;2023-08-17T12:29:05;99275.00;;;28.50
71081;BMP180;58740;50.672;18.690;2023-08-17T12:31:34;99274.60;;;28.50
71081;BMP180;58740;50.672;18.690;2023-08-17T12:34:02;99269.40;;;28.50
71081;BMP180;58740;50.672;18.690;2023-08-17T12:36:32;99272.60;;;28.40
71081;BMP180;58740;50.672;18.690;2023-08-17T12:39:00;99279.60;;;28.40
71081;BMP180;58740;50.672;18.690;2023-08-17T12:41:31;99280.40;;;28.32
71081;BMP180;58740;50.672;18.690;2023-08-17T12:43:59;99284.40;;;28.30
71081;BMP180;58740;50.672;18.690;2023-08-17T12:46:27;99297.00;;;28.28
71081;BMP180;58740;50.672;18.690;2023-08-17T12:48:59;99319.00;;;28.20
71081;BMP180;58740;50.672;18.690;2023-08-17T12:51:27;99347.20;;;28.20
71081;BMP180;58740;50.672;18.690;2023-08-17T12:53:55;99359.00;;;28.10
71081;BMP180;58740;50.672;18.690;2023-08-17T12:56:22;99365.20;;;27.90
71081;BMP180;58740;50.672;18.690;2023-08-17T12:58:50;99382.40;;;27.60
71081;BMP180;58740;50.672;18.690;2023-08-17T13:01:18;99388.60;;;27.30
71081;BMP180;58740;50.672;18.690;2023-08-17T13:03:46;99406.80;;;27.04
71081;BMP180;58740;50.672;18.690;2023-08-17T13:06:14;99410.00;;;26.90
71081;BMP180;58740;50.672;18.690;2023-08-17T13:08:42;99419.00;;;26.70
71081;BMP180;58740;50.672;18.690;2023-08-17T13:11:10;99432.40;;;26.52
71081;BMP180;58740;50.672;18.690;2023-08-17T13:13:39;99446.20;;;26.32
71081;BMP180;58740;50.672;18.690;2023-08-17T13:16:06;99462.60;;;26.10
71081;BMP180;58740;50.672;18.690;2023-08-17T13:18:34;99459.60;;;25.80
71081;BMP180;58740;50.672;18.690;2023-08-17T13:21:09;99446.00;;;25.58
71081;BMP180;58740;50.672;18.690;2023-08-17T13:23:44;99450.40;;;25.30
71081;BMP180;58740;50.672;18.690;2023-08-17T13:26:32;99465.80;;;25.04
71081;BMP180;58740;50.672;18.690;2023-08-17T13:29:06;99469.00;;;24.90
71081;BMP180;58740;50.672;18.690;2023-08-17T13:31:53;99459.00;;;24.60
71081;BMP180;58740;50.672;18.690;2023-08-17T13:34:28;99457.80;;;24.50
71081;BMP180;58740;50.672;18.690;2023-08-17T13:37:16;99461.80;;;24.30
71081;BMP180;58740;50.672;18.690;2023-08-17T13:39:50;99489.20;;;24.20
71081;BMP180;58740;50.672;18.690;2023-08-17T13:42:38;99486.60;;;24.00
71081;BMP180;58740;50.672;18.690;2023-08-17T13:45:13;99481.80;;;23.90
71081;BMP180;58740;50.672;18.690;2023-08-17T13:48:00;99462.80;;;23.70
71081;BMP180;58740;50.672;18.690;2023-08-17T13:50:42;99481.40;;;23.50
71081;BMP180;58740;50.672;18.690;2023-08-17T13:53:29;99485.20;;;23.42
71081;BMP180;58740;50.672;18.690;2023-08-17T13:56:04;99506.20;;;23.30
71081;BMP180;58740;50.672;18.690;2023-08-17T13:58:52;99530.00;;;23.20
71081;BMP180;58740;50.672;18.690;2023-08-17T14:01:26;99502.00;;;23.00
71081;BMP180;58740;50.672;18.690;2023-08-17T14:04:13;99503.80;;;22.90
71081;BMP180;58740;50.672;18.690;2023-08-17T14:06:48;99496.80;;;22.80
71081;BMP180;58740;50.672;18.690;2023-08-17T14:09:42;99501.80;;;22.70
71081;BMP180;58740;50.672;18.690;2023-08-17T14:12:50;99483.40;;;22.70
71081;BMP180;58740;50.672;18.690;2023-08-17T14:15:45;99483.00;;;22.70
71081;BMP180;58740;50.672;18.690;2023-08-17T14:18:22;99479.20;;;22.66
71081;BMP180;58740;50.672;18.690;2023-08-17T14:36:20;99456.80;;;22.60
71081;BMP180;58740;50.672;18.690;2023-08-17T14:38:48;99441.40;;;22.60
71081;BMP180;58740;50.672;18.690;2023-08-17T14:41:16;99438.00;;;22.60
71081;BMP180;58740;50.672;18.690;2023-08-17T14:43:44;99429.40;;;22.60